Flight Track Log - Related Links

Times and Time Zones

All times are in EDT time to prevent confusion due to time zone crossing. See the LOF3416 flight status page for this flight to view local times or setup timezone preferences in your user account.

Time Position Orientation Groundspeed Altitude Reporting Facility
EDT Latitude Longitude Course Direction KTS MPH feet Rate Location/Type
Tue 10:01:07 PM 41.9167 -87.9167 197° South 168 193 3,000  Level Chicago TRACON
Tue 10:02:07 PM 41.8667 -87.9333 194° South 225 259 5,500 2,035 Climbing Chicago TRACON
Tue 10:03:02 PM 41.8108 -87.9419 187° South 234 269 6,900 1,759 Climbing Chicago Center
Tue 10:04:03 PM 41.7436 -87.9783 202° Southwest 258 297 8,900 1,918 Climbing Chicago Center
Tue 10:05:04 PM 41.6703 -88.0219 204° Southwest 285 328 10,800 1,756 Climbing Chicago Center
Tue 10:06:00 PM 41.6144 -88.3716 197° South  Level Estimated
Tue 10:06:06 PM 41.5928 -88.0683 204° Southwest 304 350 12,500  Level Chicago Center
Tue 10:07:07 PM 41.4919 -88.1289 204° Southwest 337 388 13,700 1,131 Climbing Chicago Center
Tue 10:08:08 PM 41.4022 -88.1817 204° Southwest 367 422 14,800 1,024 Climbing Chicago Center
Tue 10:09:10 PM 41.3033 -88.2264 199° South 382 440 15,800 976 Climbing Chicago Center
Tue 10:10:11 PM 41.2011 -88.2725 199° South 390 449 16,800 976 Climbing Chicago Center
Tue 10:11:13 PM 41.0972 -88.3197 199° South 395 455 17,800 1,220 Climbing Chicago Center
Tue 10:12:14 PM 40.9714 -88.3753 198° South 399 459 19,300 1,672 Climbing Chicago Center
Tue 10:13:15 PM 40.8697 -88.4208 199° South 390 449 21,200 1,902 Climbing Chicago Center
Tue 10:14:17 PM 40.7728 -88.4650 199° South 376 433 23,200 1,902 Climbing Chicago Center
Tue 10:15:18 PM 40.6797 -88.5067 199° South 359 413 25,100 1,463 Climbing Chicago Center
Tue 10:16:20 PM 40.6117 -88.5906 223° Southwest 342 394 26,200 1,024 Climbing Chicago Center
Tue 10:17:21 PM 40.5489 -88.6886 230° Southwest 350 403 27,200 836 Climbing Chicago Center
Tue 10:18:22 PM 40.4836 -88.7892 230° Southwest 359 413 27,900 390 Climbing Chicago Center
Tue 10:19:24 PM 40.4067 -88.9036 229° Southwest 381 438 28,000 49 Climbing Chicago Center
Tue 10:20:25 PM 40.3308 -89.0192 229° Southwest 406 467 28,000  Level Chicago Center
Tue 10:21:27 PM 40.2531 -89.1392 230° Southwest 427 491 28,000  Level Chicago Center
Tue 10:22:28 PM 40.1739 -89.2586 229° Southwest 433 498 28,000  Level Chicago Center
Tue 10:23:20 PM 40.0936 -89.3769 228° Southwest 430 495 28,000  Level Kansas City Center
Tue 10:24:22 PM 40.0153 -89.4944 229° Southwest 429 494 28,000  Level Kansas City Center
Tue 10:25:23 PM 39.9369 -89.6117 229° Southwest 428 493 28,000  Level Kansas City Center
Tue 10:26:25 PM 39.8586 -89.7286 229° Southwest 428 493 28,000  Level Kansas City Center
Tue 10:27:26 PM 39.7797 -89.8447 229° Southwest 427 491 28,000  Level Kansas City Center
Tue 10:28:27 PM 39.6967 -89.9675 229° Southwest 431 496 28,000  Level Kansas City Center
Tue 10:29:29 PM 39.6164 -90.0861 229° Southwest 437 503 28,000  Level Kansas City Center
Tue 10:30:30 PM 39.5361 -90.2061 229° Southwest 440 506 28,000  Level Kansas City Center
Tue 10:31:31 PM 39.4553 -90.3231 228° Southwest 440 506 28,000  Level Kansas City Center
Tue 10:32:33 PM 39.3769 -90.4383 229° Southwest 434 499 28,000  Level Kansas City Center
Tue 10:33:34 PM 39.2969 -90.5550 228° Southwest 435 501 28,000  Level Kansas City Center
Tue 10:34:36 PM 39.2008 -90.6933 228° Southwest 435 501 28,000  Level Kansas City Center
Tue 10:35:37 PM 39.1197 -90.8111 228° Southwest 441 507 28,000  Level Kansas City Center
Tue 10:36:38 PM 39.0381 -90.9275 228° Southwest 443 510 28,000  Level Kansas City Center
Tue 10:37:40 PM 38.9567 -91.0439 228° Southwest 442 509 28,000  Level Kansas City Center
Tue 10:38:42 PM 38.8744 -91.1600 228° Southwest 442 509 28,000  Level Kansas City Center
Tue 10:39:43 PM 38.7922 -91.2772 228° Southwest 445 512 28,000  Level Kansas City Center
Tue 10:40:44 PM 38.7017 -91.4042 228° Southwest 445 512 28,000 -49 Level Kansas City Center
Tue 10:41:46 PM 38.6186 -91.5214 228° Southwest 445 512 27,900 -634 Descending Kansas City Center
Tue 10:42:47 PM 38.5361 -91.6375 228° Southwest 442 509 26,700 -1,475 Descending Kansas City Center
Tue 10:43:48 PM 38.4344 -91.7783 227° Southwest 447 514 24,900 -1,659 Descending Kansas City Center
Tue 10:44:50 PM 38.3497 -91.8944 227° Southwest 447 514 23,300 -1,512 Descending Kansas City Center
Tue 10:45:51 PM 38.2683 -92.0075 228° Southwest 437 503 21,800 -1,475 Descending Kansas City Center
Tue 10:46:52 PM 38.1892 -92.1161 227° Southwest 424 488 20,300 -1,377 Descending Kansas City Center
Tue 10:47:53 PM 38.1189 -92.2117 227° Southwest 419 482 19,000 -1,366 Descending Kansas City Center
Tue 10:48:55 PM 38.0408 -92.3181 227° Southwest 415 478 17,500 -1,463 Descending Kansas City Center
Tue 10:49:56 PM 37.9508 -92.4453 228° Southwest 409 471 16,000 -787 Descending Kansas City Center
Tue 10:50:57 PM 37.8756 -92.5450 226° Southwest 398 458 15,900 -49 Descending Kansas City Center
Tue 10:51:59 PM 37.8011 -92.6469 227° Southwest 398 458 15,900  Level Kansas City Center
Tue 10:53:00 PM 37.7244 -92.7503 227° Southwest 402 463 15,900 -344 Level Kansas City Center
Tue 10:54:01 PM 37.6508 -92.8528 228° Southwest 391 450 15,200 -1,268 Descending Kansas City Center
Tue 10:55:03 PM 37.5914 -92.9478 232° Southwest 365 420 13,300 -2,146 Descending Kansas City Center
Tue 10:56:04 PM 37.5389 -93.0358 233° Southwest 336 387 10,800 -2,557 Descending Kansas City Center
Tue 10:57:05 PM 37.4900 -93.1147 232° Southwest 301 346 8,100 -2,508 Descending Kansas City Center
Tue 10:58:06 PM 37.4447 -93.1878 232° Southwest 273 314 5,700 -1,967 Descending Kansas City Center
Tue 10:59:07 PM 37.4011 -93.2567 231° Southwest 262 302 4,100 -1,317 Descending Kansas City Center
Tue 11:00:09 PM 37.3678 -93.3172 235° Southwest 231 266 3,000 -634 Descending Kansas City Center
Tue 11:01:10 PM 37.3278 -93.3433 207° Southwest 162 186 2,800 -443 Descending Kansas City Center
Tue 11:02:11 PM 37.2964 -93.3581 200° South 136 157 2,100 -541 Descending Kansas City Center
Tue 11:03:12 PM 37.2692 -93.3722 202° Southwest 129 148 1,700 -393 Descending Kansas City Center
Tue 11:05:00 PM 37.2457 -93.3886 219° Southwest  Level Estimated
Tue 11:12:00 PM 37.2457 -93.3886 219° Southwest  Level Estimated

Login

Don't have an account? Register now (free) for customized features, flight alerts, and more!